Decoded Metar for UIUU (ULAN-UDE in RUSSIA) (IATA:UUD) | Meteo·Mobile Aviation Weather
aviador You're here:

UIUU Decoded Metar

ULAN-UDE in RUSSIA
Report Time2018-11-21 17:30:00
UTC Time2018-11-21 17:42:54
Flight Rules ifr IFR
WindCalm
Visibility2900 m
Phenomena:Mist
Smoke
Clouds:N/A
Expected CloudBase > 800 ft AGL from Temp-Dew spread
CeilingNone
Temp-19°C (ISA -31)
Dew Point-21°C (84% RH)
AAT-22.6°C
QNH1024 hPa
Density Alt-2,562 ft
Elevation1,690 ft
Report Wrong Elevation
Raw Report
UIUU 211730Z 00000MPS 2900 BR FU NSC M19/M21 Q1024 R26/810555
NOSIG RMK QFE723/0964=

Extra information for UIUU:More info

Metar Taf Metar & Taf Last 4 Metars F.Rules Stats Wind Profile Meteogram Temp Stats Airport Information Weather charts Add Link Nearby VenuesMetar ALERT Operation Metar Decoded Social comments